createdAt,value
2022-09-17T00:02:07.231Z,69.60
2022-09-17T00:05:11.897Z,69.60
2022-09-17T00:08:16.312Z,69.70
2022-09-17T00:11:22.791Z,69.80
2022-09-17T00:14:25.811Z,69.70
2022-09-17T00:17:28.733Z,69.70
2022-09-17T00:20:33.165Z,70.00
2022-09-17T00:23:36.382Z,70.10
2022-09-17T00:26:39.802Z,70.10
2022-09-17T00:29:42.928Z,70.20
2022-09-17T00:32:45.907Z,70.40
2022-09-17T00:35:59.829Z,70.50
2022-09-17T00:39:04.258Z,71.20
2022-09-17T00:42:10.746Z,70.60
2022-09-17T00:45:14.679Z,70.70
2022-09-17T00:48:18.009Z,70.70
2022-09-17T00:51:29.859Z,70.90
2022-09-17T00:54:34.292Z,71.20
2022-09-17T00:57:37.627Z,71.10
2022-09-17T01:00:41.391Z,71.30
2022-09-17T01:03:44.599Z,71.30
2022-09-17T01:06:58.907Z,71.40
2022-09-17T01:10:22.977Z,71.80
2022-09-17T01:13:44.551Z,72.30
2022-09-17T01:16:58.602Z,72.30
2022-09-17T01:20:56.725Z,71.90
2022-09-17T01:24:47.690Z,72.90
2022-09-17T01:28:33.835Z,72.90
2022-09-17T01:31:46.033Z,73.10
2022-09-17T01:35:02.167Z,72.40
2022-09-17T01:38:16.811Z,73.10
2022-09-17T01:41:28.629Z,72.90
2022-09-17T01:44:41.514Z,72.70
2022-09-17T01:47:52.935Z,72.70
2022-09-17T01:51:04.551Z,72.90
2022-09-17T01:54:15.247Z,72.90
2022-09-17T01:57:24.125Z,73.20
2022-09-17T02:00:27.756Z,73.40
2022-09-17T02:03:40.734Z,73.50
2022-09-17T02:06:52.100Z,74.20
2022-09-17T02:10:01.909Z,74.10
2022-09-17T02:13:11.579Z,74.00
2022-09-17T02:16:20.805Z,74.30
2022-09-17T02:19:31.512Z,74.20
2022-09-17T02:22:43.501Z,74.30
2022-09-17T02:25:56.939Z,74.30
2022-09-17T02:29:08.728Z,74.30
2022-09-17T02:32:13.307Z,74.00
2022-09-17T02:35:18.361Z,73.70
2022-09-17T02:38:28.026Z,73.60
2022-09-17T02:41:47.826Z,73.80
2022-09-17T02:45:05.752Z,73.90
2022-09-17T02:48:29.625Z,73.20
2022-09-17T02:51:50.020Z,74.10
2022-09-17T02:55:04.207Z,73.70
2022-09-17T02:58:22.320Z,73.70
2022-09-17T03:01:37.708Z,73.90
2022-09-17T03:04:43.802Z,73.60
2022-09-17T03:07:48.521Z,73.50
2022-09-17T03:10:51.633Z,73.50
2022-09-17T03:13:55.107Z,73.30
2022-09-17T03:16:58.429Z,73.50
2022-09-17T03:20:01.931Z,73.50
2022-09-17T03:23:07.219Z,73.50
2022-09-17T03:26:10.253Z,73.70
2022-09-17T03:29:13.496Z,73.60
2022-09-17T03:32:16.576Z,73.70
2022-09-17T03:35:20.635Z,73.90
2022-09-17T03:38:25.244Z,74.00
2022-09-17T03:41:28.753Z,74.30
2022-09-17T03:44:31.841Z,74.20
2022-09-17T03:47:34.941Z,74.10
2022-09-17T03:50:37.908Z,74.30
2022-09-17T03:53:42.373Z,74.30
2022-09-17T03:56:46.458Z,74.50
2022-09-17T03:59:49.686Z,74.40
2022-09-17T04:02:52.760Z,74.40
2022-09-17T04:05:56.831Z,74.40
2022-09-17T04:09:01.247Z,74.60
2022-09-17T04:12:04.885Z,74.70
2022-09-17T04:15:09.745Z,74.70
2022-09-17T04:18:13.270Z,74.80
2022-09-17T04:21:16.219Z,75.40
2022-09-17T04:24:20.817Z,75.00
2022-09-17T04:27:24.059Z,75.10
2022-09-17T04:30:27.279Z,75.10
2022-09-17T04:33:30.269Z,75.30
2022-09-17T04:36:33.309Z,75.50
2022-09-17T04:39:38.199Z,75.70
2022-09-17T04:42:41.378Z,76.00
2022-09-17T04:45:48.385Z,76.00
2022-09-17T04:48:52.003Z,76.20
2022-09-17T04:51:55.012Z,76.50
2022-09-17T04:54:59.359Z,76.60
2022-09-17T04:58:02.714Z,76.70
2022-09-17T05:01:06.055Z,76.50
2022-09-17T05:04:09.243Z,76.40
2022-09-17T05:07:14.132Z,76.20
2022-09-17T05:10:21.038Z,76.30
2022-09-17T05:13:24.174Z,77.30
2022-09-17T05:16:27.323Z,76.50
2022-09-17T05:19:30.863Z,76.70
2022-09-17T05:22:33.908Z,76.70
2022-09-17T05:25:38.319Z,76.80
2022-09-17T05:28:41.397Z,76.60
2022-09-17T05:31:44.697Z,76.40
2022-09-17T05:34:48.006Z,76.30
2022-09-17T05:37:51.136Z,76.20
2022-09-17T05:40:55.494Z,75.70
2022-09-17T05:43:58.474Z,75.40
2022-09-17T05:47:01.608Z,75.10
2022-09-17T05:50:05.364Z,74.70
2022-09-17T05:53:12.373Z,74.60
2022-09-17T05:56:16.788Z,74.50
2022-09-17T05:59:19.838Z,74.40
2022-09-17T06:02:23.979Z,74.40
2022-09-17T06:05:27.787Z,74.00
2022-09-17T06:08:30.887Z,74.30
2022-09-17T06:11:35.356Z,74.40
2022-09-17T06:14:38.407Z,74.40
2022-09-17T06:17:43.388Z,74.40
2022-09-17T06:20:55.804Z,74.30
2022-09-17T06:23:58.925Z,74.80
2022-09-17T06:27:03.308Z,74.40
2022-09-17T06:30:08.573Z,74.40
2022-09-17T06:33:11.844Z,74.40
2022-09-17T06:36:15.027Z,74.30
2022-09-17T06:39:18.257Z,74.50
2022-09-17T06:42:22.885Z,74.60
2022-09-17T06:45:26.151Z,75.20
2022-09-17T06:48:31.325Z,75.60
2022-09-17T06:51:34.340Z,76.20
2022-09-17T06:54:37.307Z,76.90
2022-09-17T06:57:41.699Z,78.00
2022-09-17T07:00:44.868Z,78.50
2022-09-17T07:03:49.678Z,79.00
2022-09-17T07:06:52.661Z,78.00
2022-09-17T07:09:55.612Z,77.20
2022-09-17T07:13:00.111Z,76.40
2022-09-17T07:16:06.352Z,75.30
2022-09-17T07:19:11.084Z,74.30
2022-09-17T07:22:14.329Z,72.70
2022-09-17T07:25:17.705Z,71.50
2022-09-17T07:28:22.821Z,70.50
2022-09-17T07:31:25.992Z,69.50
2022-09-17T07:34:29.186Z,69.10
2022-09-17T07:37:32.374Z,68.70
2022-09-17T07:40:35.487Z,68.10
2022-09-17T07:43:40.729Z,68.00
2022-09-17T07:46:43.696Z,67.70
2022-09-17T07:49:46.732Z,68.10
2022-09-17T07:52:49.977Z,67.90
2022-09-17T07:55:54.374Z,67.60
2022-09-17T07:58:58.874Z,67.00
2022-09-17T08:02:02.433Z,66.80
2022-09-17T08:05:06.530Z,66.90
2022-09-17T08:08:09.610Z,66.50
2022-09-17T08:11:16.384Z,66.10
2022-09-17T08:14:29.867Z,66.00
2022-09-17T08:17:33.294Z,66.20
2022-09-17T08:20:36.273Z,66.40
2022-09-17T08:23:42.719Z,66.00
2022-09-17T08:26:45.657Z,63.50
2022-09-17T08:29:49.982Z,62.90
2022-09-17T08:32:56.590Z,60.90
2022-09-17T08:36:00.572Z,59.60
2022-09-17T08:39:03.788Z,59.70
2022-09-17T08:42:19.017Z,58.10
2022-09-17T08:45:24.207Z,58.30
2022-09-17T08:48:37.775Z,58.70
2022-09-17T08:51:54.280Z,58.70
2022-09-17T08:55:07.937Z,57.80
2022-09-17T08:58:43.927Z,57.60
2022-09-17T09:02:00.643Z,57.00
2022-09-17T09:05:15.497Z,57.80
2022-09-17T09:08:26.878Z,56.90
2022-09-17T09:11:32.907Z,57.00
2022-09-17T09:14:55.202Z,57.70
2022-09-17T09:18:13.653Z,56.70
2022-09-17T09:21:28.587Z,56.00
2022-09-17T09:24:42.539Z,55.40
2022-09-17T09:28:00.821Z,55.30
2022-09-17T09:31:24.444Z,55.40
2022-09-17T09:34:33.386Z,54.40
2022-09-17T09:37:43.058Z,54.40
2022-09-17T09:40:54.743Z,53.90
2022-09-17T09:44:05.035Z,53.60
2022-09-17T09:47:30.745Z,53.70
2022-09-17T09:51:05.734Z,53.80
2022-09-17T09:54:29.253Z,53.20
2022-09-17T09:57:44.233Z,52.80
2022-09-17T10:00:48.537Z,52.60
2022-09-17T10:03:58.087Z,52.70
2022-09-17T10:07:08.269Z,52.10
2022-09-17T10:10:12.279Z,51.30
2022-09-17T10:13:17.734Z,52.20
2022-09-17T10:16:24.847Z,52.00
2022-09-17T10:19:28.011Z,52.60
2022-09-17T10:22:35.737Z,52.10
2022-09-17T10:25:44.436Z,51.90
2022-09-17T10:28:54.681Z,52.00
2022-09-17T10:31:59.648Z,52.10
2022-09-17T10:35:07.580Z,52.40
2022-09-17T10:38:30.560Z,51.30
2022-09-17T10:41:33.685Z,50.50
2022-09-17T10:44:38.658Z,51.40
2022-09-17T10:47:44.899Z,50.60
2022-09-17T10:50:51.746Z,50.80
2022-09-17T10:54:16.118Z,50.00
2022-09-17T10:57:32.642Z,49.40
2022-09-17T11:00:49.674Z,49.90
2022-09-17T11:04:22.232Z,50.00
2022-09-17T11:07:44.216Z,49.40
2022-09-17T11:11:01.302Z,49.20
2022-09-17T11:14:26.817Z,49.80
2022-09-17T11:17:52.920Z,50.50
2022-09-17T11:21:42.334Z,50.10
2022-09-17T11:25:15.487Z,49.80
2022-09-17T11:28:42.694Z,50.00
2022-09-17T11:32:00.339Z,50.60
2022-09-17T11:35:10.223Z,50.80
2022-09-17T11:38:25.806Z,50.90
2022-09-17T11:41:35.481Z,50.60
2022-09-17T11:44:49.148Z,50.30
2022-09-17T11:48:01.618Z,50.20
2022-09-17T11:51:20.925Z,50.50
2022-09-17T11:54:31.094Z,50.10
2022-09-17T11:57:42.518Z,50.30
2022-09-17T12:00:55.874Z,50.70
2022-09-17T12:04:03.713Z,50.40
2022-09-17T12:07:23.852Z,51.30
2022-09-17T12:10:44.742Z,50.50
2022-09-17T12:13:52.905Z,49.70
2022-09-17T12:17:02.536Z,49.80
2022-09-17T12:20:18.480Z,49.70
2022-09-17T12:23:38.689Z,49.30
2022-09-17T12:27:09.215Z,49.40
2022-09-17T12:30:19.259Z,49.40
2022-09-17T12:33:34.399Z,50.30
2022-09-17T12:36:53.882Z,49.40
2022-09-17T12:40:18.089Z,49.40
2022-09-17T12:43:55.961Z,49.60
2022-09-17T12:47:24.576Z,49.20
2022-09-17T12:50:45.366Z,49.60
2022-09-17T12:54:04.899Z,49.60
2022-09-17T12:57:25.774Z,49.50
2022-09-17T13:00:29.828Z,49.20
2022-09-17T13:03:40.013Z,50.10
2022-09-17T13:07:14.466Z,50.30
2022-09-17T13:10:55.795Z,49.80
2022-09-17T13:14:10.368Z,49.70
2022-09-17T13:17:24.578Z,49.40
2022-09-17T13:20:33.849Z,49.30
2022-09-17T13:23:43.363Z,49.40
2022-09-17T13:26:47.745Z,49.00
2022-09-17T13:30:03.877Z,49.30
2022-09-17T13:33:06.976Z,48.70
2022-09-17T13:36:39.413Z,49.90
2022-09-17T13:39:48.486Z,48.60
2022-09-17T13:42:56.557Z,48.70
2022-09-17T13:46:18.167Z,49.50
2022-09-17T13:49:22.236Z,49.10
2022-09-17T13:52:39.557Z,49.60
2022-09-17T13:55:49.005Z,49.30
2022-09-17T13:58:52.069Z,50.10
2022-09-17T14:02:03.967Z,49.70
2022-09-17T14:05:33.624Z,49.90
2022-09-17T14:08:50.645Z,48.90
2022-09-17T14:11:55.778Z,48.90
2022-09-17T14:14:58.791Z,49.60
2022-09-17T14:18:02.645Z,49.60
2022-09-17T14:21:25.041Z,49.20
2022-09-17T14:24:36.927Z,48.20
2022-09-17T14:27:56.666Z,48.80
2022-09-17T14:31:02.888Z,48.40
2022-09-17T14:34:11.056Z,48.90
2022-09-17T14:37:20.083Z,48.20
2022-09-17T14:40:25.264Z,47.80
2022-09-17T14:43:48.269Z,47.80
2022-09-17T14:46:59.637Z,46.60
2022-09-17T14:50:25.410Z,47.70
2022-09-17T14:53:28.426Z,47.40
2022-09-17T14:56:34.331Z,47.90
2022-09-17T14:59:51.062Z,47.60
2022-09-17T15:02:59.436Z,46.90
2022-09-17T15:06:02.770Z,47.10
2022-09-17T15:09:05.975Z,47.20
2022-09-17T15:12:09.559Z,47.20
2022-09-17T15:15:21.573Z,47.20
2022-09-17T15:18:36.224Z,46.80
2022-09-17T15:21:44.832Z,47.20
2022-09-17T15:24:56.069Z,47.30
2022-09-17T15:28:05.999Z,46.80
2022-09-17T15:31:19.405Z,47.30
2022-09-17T15:34:24.019Z,46.80
2022-09-17T15:37:28.461Z,47.10
2022-09-17T15:40:35.130Z,47.80
2022-09-17T15:43:41.198Z,47.70
2022-09-17T15:46:45.618Z,48.00
2022-09-17T15:50:18.023Z,47.90
2022-09-17T15:53:26.547Z,48.10
2022-09-17T15:56:33.214Z,48.20
2022-09-17T15:59:36.630Z,48.10
2022-09-17T16:02:41.161Z,48.10
2022-09-17T16:05:47.683Z,47.90
2022-09-17T16:08:53.947Z,47.80
2022-09-17T16:11:57.368Z,47.90
2022-09-17T16:15:02.327Z,48.10
2022-09-17T16:18:07.281Z,47.90
2022-09-17T16:21:12.143Z,48.40
2022-09-17T16:24:15.272Z,48.40
2022-09-17T16:27:23.072Z,48.60
2022-09-17T16:30:27.060Z,48.70
2022-09-17T16:33:31.632Z,48.80
2022-09-17T16:36:34.783Z,49.10
2022-09-17T16:39:37.983Z,49.30
2022-09-17T16:42:41.146Z,49.50
2022-09-17T16:45:44.386Z,49.90
2022-09-17T16:48:52.102Z,49.90
2022-09-17T16:51:55.269Z,50.10
2022-09-17T16:54:58.339Z,50.30
2022-09-17T16:58:01.451Z,50.40
2022-09-17T17:01:08.373Z,50.50
2022-09-17T17:04:13.417Z,50.90
2022-09-17T17:07:17.052Z,51.10
2022-09-17T17:10:21.313Z,51.20
2022-09-17T17:13:24.402Z,51.40
2022-09-17T17:16:28.327Z,51.80
2022-09-17T17:19:34.628Z,51.80
2022-09-17T17:22:38.700Z,52.10
2022-09-17T17:25:41.909Z,52.30
2022-09-17T17:28:45.191Z,52.40
2022-09-17T17:31:49.596Z,53.00
2022-09-17T17:34:54.250Z,53.20
2022-09-17T17:37:57.203Z,53.70
2022-09-17T17:41:06.535Z,53.60
2022-09-17T17:44:12.494Z,54.00
2022-09-17T17:47:15.879Z,54.00
2022-09-17T17:50:20.345Z,54.00
2022-09-17T17:53:23.462Z,54.20
2022-09-17T17:56:26.600Z,54.50
2022-09-17T17:59:29.665Z,54.60
2022-09-17T18:02:32.814Z,54.60
2022-09-17T18:05:40.985Z,54.90
2022-09-17T18:08:45.319Z,55.20
2022-09-17T18:11:48.566Z,55.10
2022-09-17T18:14:51.571Z,55.10
2022-09-17T18:17:54.675Z,55.20
2022-09-17T18:21:02.529Z,55.50
2022-09-17T18:24:05.969Z,55.90
2022-09-17T18:27:09.009Z,55.70
2022-09-17T18:30:14.524Z,55.90
2022-09-17T18:33:23.611Z,56.20
2022-09-17T18:36:30.555Z,56.70
2022-09-17T18:39:57.419Z,57.20
2022-09-17T18:42:56.577Z,57.00
2022-09-17T18:46:00.627Z,56.90
2022-09-17T18:49:05.026Z,57.10
2022-09-17T18:52:09.417Z,57.20
2022-09-17T18:55:12.379Z,57.50
2022-09-17T18:58:15.423Z,57.60
2022-09-17T19:01:20.247Z,57.60
2022-09-17T19:04:23.385Z,58.10
2022-09-17T19:07:27.736Z,58.20
2022-09-17T19:10:32.189Z,58.60
2022-09-17T19:13:38.096Z,58.70
2022-09-17T19:16:41.364Z,58.70
2022-09-17T19:19:44.599Z,58.80
2022-09-17T19:22:51.390Z,59.00
2022-09-17T19:25:54.572Z,59.30
2022-09-17T19:29:00.404Z,59.20
2022-09-17T19:32:03.690Z,59.50
2022-09-17T19:35:09.449Z,59.60
2022-09-17T19:38:13.951Z,59.80
2022-09-17T19:41:19.675Z,60.20
2022-09-17T19:44:23.693Z,60.40
2022-09-17T19:47:26.811Z,60.40
2022-09-17T19:50:29.816Z,60.50
2022-09-17T19:53:34.781Z,60.70
2022-09-17T19:56:38.043Z,61.10
2022-09-17T19:59:41.178Z,61.00
2022-09-17T20:02:44.243Z,61.20
2022-09-17T20:05:47.259Z,61.40
2022-09-17T20:08:54.025Z,62.20
2022-09-17T20:11:58.856Z,62.10
2022-09-17T20:15:01.944Z,61.90
2022-09-17T20:18:05.650Z,62.10
2022-09-17T20:21:09.967Z,62.30
2022-09-17T20:24:15.335Z,62.50
2022-09-17T20:27:18.538Z,63.10
2022-09-17T20:30:21.637Z,62.90
2022-09-17T20:33:24.606Z,63.10
2022-09-17T20:36:31.697Z,63.40
2022-09-17T20:39:36.069Z,63.50
2022-09-17T20:42:39.091Z,64.00
2022-09-17T20:45:42.062Z,64.00
2022-09-17T20:48:45.908Z,64.70
2022-09-17T20:51:48.960Z,64.30
2022-09-17T20:54:53.491Z,64.50
2022-09-17T20:57:56.674Z,65.10
2022-09-17T21:01:07.528Z,65.00
2022-09-17T21:04:10.892Z,66.20
2022-09-17T21:07:13.865Z,65.40
2022-09-17T21:10:18.277Z,65.60
2022-09-17T21:13:21.579Z,65.90
2022-09-17T21:16:25.013Z,65.70
2022-09-17T21:19:29.294Z,66.40
2022-09-17T21:22:32.216Z,65.90
2022-09-17T21:25:36.532Z,67.30
2022-09-17T21:28:41.108Z,65.90
2022-09-17T21:31:44.629Z,66.00
2022-09-17T21:34:47.644Z,66.20
2022-09-17T21:37:52.680Z,66.10
2022-09-17T21:40:58.079Z,66.10
2022-09-17T21:44:01.309Z,66.40
2022-09-17T21:47:06.943Z,66.20
2022-09-17T21:50:12.186Z,66.40
2022-09-17T21:53:15.141Z,66.30
2022-09-17T21:56:21.730Z,66.50
2022-09-17T21:59:25.115Z,66.60
2022-09-17T22:02:29.053Z,66.40
2022-09-17T22:05:34.022Z,66.60
2022-09-17T22:08:37.494Z,66.70
2022-09-17T22:11:41.886Z,66.50
2022-09-17T22:14:45.153Z,66.50
2022-09-17T22:17:48.304Z,66.50
2022-09-17T22:20:51.230Z,66.40
2022-09-17T22:23:57.758Z,66.30
2022-09-17T22:27:02.430Z,66.40
2022-09-17T22:30:06.684Z,66.70
2022-09-17T22:33:09.534Z,66.70
2022-09-17T22:36:16.505Z,67.60
2022-09-17T22:39:22.140Z,66.70
2022-09-17T22:42:26.438Z,66.90
2022-09-17T22:45:29.755Z,67.00
2022-09-17T22:48:32.775Z,67.90
2022-09-17T22:51:36.515Z,66.60
2022-09-17T22:54:41.112Z,67.10
2022-09-17T22:57:45.598Z,67.10
2022-09-17T23:00:48.809Z,67.20
2022-09-17T23:03:54.472Z,67.10
2022-09-17T23:06:57.526Z,67.10
2022-09-17T23:10:00.526Z,67.10
2022-09-17T23:13:04.868Z,67.10
2022-09-17T23:16:10.524Z,67.20
2022-09-17T23:19:15.454Z,67.20
2022-09-17T23:22:21.528Z,67.10
2022-09-17T23:25:24.583Z,67.00
2022-09-17T23:28:28.944Z,67.10
2022-09-17T23:31:32.669Z,67.10
2022-09-17T23:34:37.613Z,67.10
2022-09-17T23:37:40.712Z,67.10
2022-09-17T23:40:43.747Z,67.10
2022-09-17T23:43:50.369Z,67.20
2022-09-17T23:46:53.539Z,67.40
2022-09-17T23:49:56.862Z,67.40
2022-09-17T23:52:59.849Z,67.10
2022-09-17T23:56:04.221Z,67.10
2022-09-17T23:59:08.612Z,67.10
